Vero Beach, Florida
Current Conditions -  °F | °C
As of 1:53 PM on Tuesday 27 Jan 2015 (Local Time) from KVRB Reporting Station
Clear Clear  
Wind Chill: 65°   Ceiling: Unl
Heat Index: 65°   Visibility: 10mi
Dew Point: 34°   Wind: 21mph
Humidity: 32%   Direction: 280°W
Pressure: 29.96"   Gusts: 28mph
Location:  27.64°N, 80.39°W
Report Text: KVRB 271853Z 28018G24KT 10SM CLR 18/01 A2996 RMK AO2 SLP145 T01830011
Loading
Personal Weather Stations






























Interactive Weather Map New forecast layout! Learn more

10-Day Weather Forecast

Advertisements
Track Severe Weather on mobile